createdAt,value
2018-06-29T00:00:04.550Z,964.26
2018-06-29T00:15:05.304Z,964.17
2018-06-29T00:30:05.071Z,964.23
2018-06-29T00:45:04.531Z,964.17
2018-06-29T01:00:05.398Z,964.37
2018-06-29T01:15:05.020Z,964.37
2018-06-29T01:30:05.015Z,964.53
2018-06-29T01:45:06.138Z,964.53
2018-06-29T02:00:05.465Z,964.2
2018-06-29T02:15:05.101Z,964.09
2018-06-29T02:30:05.030Z,963.9
2018-06-29T02:45:04.590Z,963.76
2018-06-29T03:00:05.517Z,963.93
2018-06-29T03:15:05.043Z,963.9
2018-06-29T03:30:04.828Z,963.84
2018-06-29T03:45:04.886Z,963.79
2018-06-29T04:00:05.568Z,963.82
2018-06-29T04:15:04.792Z,963.9
2018-06-29T04:30:05.240Z,963.95
2018-06-29T04:45:04.627Z,963.65
2018-06-29T05:00:05.107Z,963.73
2018-06-29T05:15:04.978Z,963.79
2018-06-29T05:30:04.976Z,963.3
2018-06-29T05:45:04.626Z,963.1
2018-06-29T06:00:05.099Z,963.13
2018-06-29T06:15:04.603Z,963.19
2018-06-29T06:30:04.624Z,962.83
2018-06-29T06:45:05.288Z,962.47
2018-06-29T07:00:04.686Z,961.84
2018-06-29T07:15:05.093Z,961.46
2018-06-29T07:30:05.522Z,960.83
2018-06-29T07:45:04.988Z,961.48
2018-06-29T08:00:04.366Z,962.14
2018-06-29T08:15:04.860Z,961.32
2018-06-29T08:30:04.613Z,959.32
2018-06-29T08:45:05.002Z,958.41
2018-06-29T09:00:04.919Z,964.57
2018-06-29T09:15:04.811Z,963.74
2018-06-29T09:30:05.840Z,963.02
2018-06-29T09:45:04.953Z,963.77
2018-06-29T10:00:04.413Z,964.18
2018-06-29T10:15:04.865Z,963.85
2018-06-29T10:30:05.167Z,963.82
2018-06-29T10:45:10.167Z,963.91
2018-06-29T11:00:04.588Z,963.91
2018-06-29T11:15:04.978Z,963.52
2018-06-29T11:30:05.112Z,963.35
2018-06-29T11:45:04.675Z,964.18
2018-06-29T12:00:04.485Z,964.05
2018-06-29T12:15:04.877Z,963.93
2018-06-29T12:30:05.096Z,963.49
2018-06-29T12:45:04.799Z,963.19
2018-06-29T13:00:04.712Z,962.86
2018-06-29T13:15:05.268Z,962.83
2018-06-29T13:30:04.846Z,962.55
2018-06-29T13:45:04.930Z,962.5
2018-06-29T14:00:04.498Z,962.08
2018-06-29T14:15:04.601Z,961.72
2018-06-29T14:30:05.200Z,961.5
2018-06-29T14:45:05.094Z,961.53
2018-06-29T15:00:04.695Z,960.89
2018-06-29T15:15:04.780Z,960.81
2018-06-29T15:30:04.573Z,960.59
2018-06-29T15:45:06.226Z,960.78
2018-06-29T16:00:10.239Z,960.42
2018-06-29T16:15:04.648Z,960.31
2018-06-29T16:30:04.790Z,960.06
2018-06-29T16:45:04.751Z,959.87
2018-06-29T17:00:04.886Z,959.56
2018-06-29T17:15:05.194Z,959.68
2018-06-29T17:30:04.990Z,959.92
2018-06-29T17:45:04.957Z,960.23
2018-06-29T18:00:04.622Z,960.28
